Time;durP1;ratioP1;P1;durP2;ratioP2;P2;SDS_P1;SDS_P2;PMS_P1;PMS_P2;Temp;Humidity;BMP_temperature;BMP_pressure;BME280_temperature;BME280_humidity;BME280_pressure;Samples;Min_cycle;Max_cycle;Signal;HPM_P1;HPM_P2
2021/12/17 00:00:45;;;;;;;22.53;13.17;;;;;;;;;;4964669;28;20209;-64
2021/12/17 00:03:20;;;;;;;19.70;12.67;;;;;;;;;;4972721;28;20234;-64
2021/12/17 00:08:16;;;;;;;19.33;11.90;;;;;;;;;;4981144;28;20274;-65
2021/12/17 00:10:44;;;;;;;20.83;13.30;;;;;;;;;;4961732;28;20724;-64
2021/12/17 00:13:11;;;;;;;19.33;13.23;;;;;;;;;;4956659;28;20223;-65
2021/12/17 00:15:40;;;;;;;20.20;13.10;;;;;;;;;;4982490;28;20208;-65
2021/12/17 00:18:16;;;;;;;19.67;12.87;;;;;;;;;;4969614;28;20208;-64
2021/12/17 00:48:35;;;;;;;36.83;19.67;;;;;;;;;;4970683;28;20758;-64
2021/12/17 00:53:46;;;;;;;40.03;20.97;;;;;;;;;;4976124;28;20200;-63
2021/12/17 00:56:14;;;;;;;35.20;18.80;;;;;;;;;;4963002;28;20727;-64
2021/12/17 00:58:41;;;;;;;42.27;21.70;;;;;;;;;;4973942;28;20235;-63
2021/12/17 01:01:09;;;;;;;39.83;21.03;;;;;;;;;;4968224;28;20282;-64
2021/12/17 01:03:36;;;;;;;40.67;21.70;;;;;;;;;;4959962;28;20212;-63
2021/12/17 01:06:04;;;;;;;38.40;20.77;;;;;;;;;;4982570;28;20247;-65
2021/12/17 01:08:31;;;;;;;38.30;20.50;;;;;;;;;;4963995;28;20714;-64
2021/12/17 01:10:59;;;;;;;39.73;19.60;;;;;;;;;;4959190;28;20262;-63
2021/12/17 01:13:27;;;;;;;40.90;20.43;;;;;;;;;;4960036;28;20651;-65
2021/12/17 01:15:56;;;;;;;38.10;18.60;;;;;;;;;;4961250;28;20224;-63
2021/12/17 01:18:35;;;;;;;44.13;19.37;;;;;;;;;;4968619;28;20619;-64
2021/12/17 01:24:31;;;;;;;39.63;19.07;;;;;;;;;;4906191;29;20244;-64
2021/12/17 01:35:28;;;;;;;34.80;17.73;;;;;;;;;;4983259;28;20232;-64
2021/12/17 01:43:35;;;;;;;33.20;16.30;;;;;;;;;;4983807;28;20219;-65
2021/12/17 01:46:04;;;;;;;36.43;17.67;;;;;;;;;;4976676;28;20632;-65
2021/12/17 01:48:50;;;;;;;36.60;17.47;;;;;;;;;;4960203;28;20282;-66
2021/12/17 01:59:17;;;;;;;31.77;16.07;;;;;;;;;;4979284;28;20300;-65
2021/12/17 01:59:45;;;;;;;31.70;16.00;;;;;;;;;;4985115;28;20208;-64
2021/12/17 02:02:12;;;;;;;31.20;15.20;;;;;;;;;;4967562;28;20252;-63
2021/12/17 02:04:39;;;;;;;26.23;15.03;;;;;;;;;;4964656;28;20204;-64
2021/12/17 02:07:07;;;;;;;33.10;15.73;;;;;;;;;;4972757;28;20212;-64
2021/12/17 02:29:12;;;;;;;31.57;15.53;;;;;;;;;;4984408;28;20229;-64
2021/12/17 02:31:40;;;;;;;34.77;15.33;;;;;;;;;;4969012;28;20287;-65
2021/12/17 02:34:29;;;;;;;38.07;17.67;;;;;;;;;;4960713;28;20239;-63
2021/12/17 02:36:58;;;;;;;37.43;16.53;;;;;;;;;;4977592;28;20200;-64
2021/12/17 02:47:31;;;;;;;30.40;15.57;;;;;;;;;;4984475;28;20216;-64
2021/12/17 02:49:58;;;;;;;31.97;15.03;;;;;;;;;;4965949;28;20225;-65
2021/12/17 02:52:30;;;;;;;34.40;16.73;;;;;;;;;;4977072;28;20620;-64
2021/12/17 02:54:57;;;;;;;34.83;14.90;;;;;;;;;;4967009;28;20230;-65
2021/12/17 02:57:25;;;;;;;36.13;14.33;;;;;;;;;;4967740;28;20216;-64
2021/12/17 02:59:53;;;;;;;28.77;13.13;;;;;;;;;;4962671;28;20231;-64
2021/12/17 03:02:26;;;;;;;28.90;13.63;;;;;;;;;;4976531;28;20235;-65
2021/12/17 03:04:54;;;;;;;29.87;15.23;;;;;;;;;;4974112;28;20213;-64
2021/12/17 03:07:21;;;;;;;30.67;13.80;;;;;;;;;;4978051;28;20204;-63
2021/12/17 03:12:35;;;;;;;27.80;11.60;;;;;;;;;;4979940;28;20283;-64
2021/12/17 03:15:22;;;;;;;22.30;11.53;;;;;;;;;;4982684;28;20219;-65
2021/12/17 03:26:18;;;;;;;29.50;12.00;;;;;;;;;;4985589;28;20612;-64
2021/12/17 03:28:47;;;;;;;28.10;12.60;;;;;;;;;;4979837;28;20690;-65
2021/12/17 03:31:15;;;;;;;24.37;11.73;;;;;;;;;;4982861;28;20272;-64
2021/12/17 03:33:44;;;;;;;24.30;11.60;;;;;;;;;;4961362;28;20803;-64
2021/12/17 03:36:14;;;;;;;19.27;11.77;;;;;;;;;;4972358;28;20216;-66
2021/12/17 03:38:42;;;;;;;22.30;11.40;;;;;;;;;;4966228;28;20662;-65
2021/12/17 03:43:38;;;;;;;27.30;11.60;;;;;;;;;;5009843;28;20191;-64
2021/12/17 03:46:05;;;;;;;24.23;11.73;;;;;;;;;;4984149;28;20208;-65
2021/12/17 03:48:36;;;;;;;31.07;12.50;;;;;;;;;;4963494;28;22657;-63
2021/12/17 03:51:05;;;;;;;25.83;11.93;;;;;;;;;;4969557;28;20212;-63
2021/12/17 03:53:32;;;;;;;26.00;11.87;;;;;;;;;;4960061;28;20251;-65
2021/12/17 03:56:00;;;;;;;41.40;12.20;;;;;;;;;;4965100;28;20259;-64
2021/12/17 03:58:27;;;;;;;25.33;12.10;;;;;;;;;;4963738;28;20255;-64
2021/12/17 04:00:54;;;;;;;54.27;12.50;;;;;;;;;;4969982;28;20204;-63
2021/12/17 04:03:22;;;;;;;29.50;12.63;;;;;;;;;;4976810;28;20291;-65
2021/12/17 04:05:49;;;;;;;21.57;11.53;;;;;;;;;;4963634;28;20292;-63
2021/12/17 04:08:17;;;;;;;27.13;13.20;;;;;;;;;;4963031;28;20251;-65
2021/12/17 04:10:48;;;;;;;23.93;13.27;;;;;;;;;;4971557;28;20231;-65
2021/12/17 04:15:56;;;;;;;20.57;12.00;;;;;;;;;;4984314;28;20204;-65
2021/12/17 04:18:24;;;;;;;31.10;15.80;;;;;;;;;;4960566;28;20212;-65
2021/12/17 04:20:51;;;;;;;23.30;12.90;;;;;;;;;;4970753;28;20835;-64
2021/12/17 04:23:20;;;;;;;29.57;15.63;;;;;;;;;;4972346;28;20717;-63
2021/12/17 04:25:49;;;;;;;31.93;15.63;;;;;;;;;;4975793;28;20621;-64
2021/12/17 04:28:17;;;;;;;25.13;12.73;;;;;;;;;;4980821;28;20209;-65
2021/12/17 04:30:47;;;;;;;25.10;12.93;;;;;;;;;;4970212;28;21102;-65
2021/12/17 04:33:15;;;;;;;23.40;14.30;;;;;;;;;;4969349;28;20229;-62
2021/12/17 04:35:42;;;;;;;24.73;13.33;;;;;;;;;;4964225;28;20757;-64
2021/12/17 04:38:12;;;;;;;24.70;13.30;;;;;;;;;;4970071;28;20205;-64
2021/12/17 04:40:42;;;;;;;26.77;13.20;;;;;;;;;;4970970;28;20718;-64
2021/12/17 04:43:36;;;;;;;44.30;16.20;;;;;;;;;;4962652;28;20220;-63
2021/12/17 04:46:23;;;;;;;67.47;14.40;;;;;;;;;;4964374;28;20255;-63
2021/12/17 04:59:45;;;;;;;39.83;14.47;;;;;;;;;;4982933;28;20270;-64
2021/12/17 05:02:14;;;;;;;45.13;13.03;;;;;;;;;;4969947;28;20747;-64
2021/12/17 05:04:43;;;;;;;44.50;13.87;;;;;;;;;;4966120;28;20216;-65
2021/12/17 05:07:13;;;;;;;39.77;14.00;;;;;;;;;;4967562;28;20215;-64
2021/12/17 05:09:57;;;;;;;55.00;13.03;;;;;;;;;;4978016;28;20236;-65
2021/12/17 05:20:50;;;;;;;31.07;10.27;;;;;;;;;;4979326;28;20212;-64
2021/12/17 05:23:28;;;;;;;52.60;11.00;;;;;;;;;;4957932;28;20230;-64
2021/12/17 05:25:58;;;;;;;33.43;11.53;;;;;;;;;;4970037;28;20262;-63
2021/12/17 05:28:27;;;;;;;27.07;13.03;;;;;;;;;;4970727;28;20626;-64
2021/12/17 05:30:56;;;;;;;23.57;12.27;;;;;;;;;;4969580;28;20236;-63
2021/12/17 05:33:24;;;;;;;42.17;13.20;;;;;;;;;;4958561;28;20674;-64
2021/12/17 05:35:51;;;;;;;50.13;11.80;;;;;;;;;;4960210;28;20258;-64
2021/12/17 05:38:19;;;;;;;33.17;12.57;;;;;;;;;;4962145;28;20212;-63
2021/12/17 05:40:47;;;;;;;31.70;11.27;;;;;;;;;;4971265;28;20204;-65
2021/12/17 05:43:15;;;;;;;27.67;11.73;;;;;;;;;;4967487;28;20235;-65
2021/12/17 05:48:16;;;;;;;68.70;12.83;;;;;;;;;;4964852;28;20216;-65
2021/12/17 05:50:44;;;;;;;33.53;11.77;;;;;;;;;;4954592;28;20244;-63
2021/12/17 05:53:12;;;;;;;31.73;11.80;;;;;;;;;;4963672;28;20232;-64
2021/12/17 05:55:39;;;;;;;34.40;11.70;;;;;;;;;;4976704;28;20208;-63
2021/12/17 05:58:07;;;;;;;32.60;12.20;;;;;;;;;;4971390;28;20708;-63
2021/12/17 06:00:35;;;;;;;68.17;13.07;;;;;;;;;;4957945;28;20212;-63
2021/12/17 06:03:03;;;;;;;64.60;14.40;;;;;;;;;;4968892;28;20255;-64
2021/12/17 06:05:30;;;;;;;47.47;12.80;;;;;;;;;;4957569;28;20278;-65
2021/12/17 06:07:59;;;;;;;39.33;12.30;;;;;;;;;;4963726;28;20682;-63
2021/12/17 06:10:26;;;;;;;39.27;13.33;;;;;;;;;;4963655;28;20833;-63
2021/12/17 06:12:54;;;;;;;71.27;12.83;;;;;;;;;;4959323;28;20242;-63
2021/12/17 06:15:23;;;;;;;36.20;11.93;;;;;;;;;;4973350;28;20204;-64
2021/12/17 06:17:52;;;;;;;57.33;12.93;;;;;;;;;;4978528;28;20212;-63
2021/12/17 06:20:20;;;;;;;54.23;12.40;;;;;;;;;;4953709;28;20595;-63
2021/12/17 06:22:48;;;;;;;34.27;12.53;;;;;;;;;;4972634;28;20237;-64
2021/12/17 06:25:16;;;;;;;55.23;12.87;;;;;;;;;;4957157;28;20697;-63
2021/12/17 06:27:44;;;;;;;48.07;12.00;;;;;;;;;;4959530;28;20871;-63
2021/12/17 06:30:13;;;;;;;34.07;12.07;;;;;;;;;;4959043;28;20326;-63
2021/12/17 06:32:41;;;;;;;26.80;12.17;;;;;;;;;;4955203;28;20311;-65
2021/12/17 06:35:09;;;;;;;25.10;12.23;;;;;;;;;;4961114;28;20207;-63
2021/12/17 06:37:40;;;;;;;24.77;12.87;;;;;;;;;;4949549;28;20215;-64
2021/12/17 06:40:09;;;;;;;45.03;13.40;;;;;;;;;;4955109;28;20213;-64
2021/12/17 06:42:36;;;;;;;31.70;13.73;;;;;;;;;;4955410;28;20228;-65
2021/12/17 06:45:08;;;;;;;28.00;13.20;;;;;;;;;;4965815;28;20617;-64
2021/12/17 06:47:37;;;;;;;27.30;13.93;;;;;;;;;;4981308;28;20267;-64
2021/12/17 07:06:41;;;;;;;18.53;12.63;;;;;;;;;;4904035;29;20219;-65
2021/12/17 07:17:33;;;;;;;24.87;15.97;;;;;;;;;;4990892;28;20197;-65
2021/12/17 07:23:05;;;;;;;25.93;17.37;;;;;;;;;;4990594;28;20224;-64
2021/12/17 07:34:07;;;;;;;39.93;19.97;;;;;;;;;;4991598;28;20224;-64
2021/12/17 07:38:37;;;;;;;38.97;19.03;;;;;;;;;;4973661;28;20210;-64
2021/12/17 07:39:25;;;;;;;31.90;18.30;;;;;;;;;;4979484;28;20205;-64
2021/12/17 07:41:52;;;;;;;20.27;13.50;;;;;;;;;;4962717;28;20237;-65
2021/12/17 07:44:19;;;;;;;29.53;15.93;;;;;;;;;;4973907;28;20201;-63
2021/12/17 07:46:47;;;;;;;21.57;13.57;;;;;;;;;;4978931;28;20208;-64
2021/12/17 07:49:14;;;;;;;20.93;14.50;;;;;;;;;;4981717;28;20764;-64
2021/12/17 07:51:42;;;;;;;20.73;14.63;;;;;;;;;;4973488;28;20608;-64
2021/12/17 07:54:09;;;;;;;21.90;14.80;;;;;;;;;;4959764;28;20212;-64
2021/12/17 07:56:38;;;;;;;19.73;15.00;;;;;;;;;;4972691;28;20211;-63
2021/12/17 07:59:07;;;;;;;21.53;14.33;;;;;;;;;;4976270;28;20212;-63
2021/12/17 08:01:35;;;;;;;20.87;15.37;;;;;;;;;;4987836;28;20291;-64
2021/12/17 08:04:04;;;;;;;22.73;16.70;;;;;;;;;;4974713;28;20208;-64
2021/12/17 08:06:32;;;;;;;25.10;17.27;;;;;;;;;;4977211;28;20220;-65
2021/12/17 08:08:59;;;;;;;24.70;17.43;;;;;;;;;;4966699;28;20559;-63
2021/12/17 08:11:27;;;;;;;20.60;15.03;;;;;;;;;;4975380;28;20717;-65
2021/12/17 08:13:56;;;;;;;18.87;12.73;;;;;;;;;;4974166;28;20201;-63
2021/12/17 08:23:09;;;;;;;18.03;13.87;;;;;;;;;;4988673;28;20196;-63
2021/12/17 08:24:57;;;;;;;16.00;11.57;;;;;;;;;;4984365;28;20255;-65
2021/12/17 08:27:32;;;;;;;16.00;11.67;;;;;;;;;;4983320;28;20211;-64
2021/12/17 08:32:43;;;;;;;19.83;13.07;;;;;;;;;;4990209;28;20223;-64
2021/12/17 08:35:11;;;;;;;17.40;12.50;;;;;;;;;;4985334;28;20215;-65
2021/12/17 08:37:38;;;;;;;17.73;11.50;;;;;;;;;;4972476;28;20216;-65
2021/12/17 08:40:06;;;;;;;17.97;12.37;;;;;;;;;;4976991;28;20262;-66
2021/12/17 08:42:34;;;;;;;16.67;10.90;;;;;;;;;;4971791;28;20236;-64
2021/12/17 08:45:02;;;;;;;17.80;11.70;;;;;;;;;;4979299;28;20208;-64
2021/12/17 08:47:29;;;;;;;16.50;10.60;;;;;;;;;;4983258;28;20208;-64
2021/12/17 08:50:04;;;;;;;18.30;12.30;;;;;;;;;;4977089;28;20670;-64
2021/12/17 08:52:31;;;;;;;21.03;12.90;;;;;;;;;;4976538;28;20270;-63
2021/12/17 08:54:59;;;;;;;17.73;12.33;;;;;;;;;;4971836;28;20209;-65
2021/12/17 08:57:26;;;;;;;22.67;14.50;;;;;;;;;;4988163;28;20207;-69
2021/12/17 08:59:56;;;;;;;19.43;13.03;;;;;;;;;;4975059;28;20213;-64
2021/12/17 09:02:23;;;;;;;14.23;10.80;;;;;;;;;;4960675;28;20239;-63
2021/12/17 09:04:50;;;;;;;16.47;11.63;;;;;;;;;;4978221;28;20299;-66
2021/12/17 09:07:18;;;;;;;14.20;11.07;;;;;;;;;;4971201;28;20676;-65
2021/12/17 09:09:47;;;;;;;15.90;11.90;;;;;;;;;;4972558;28;20209;-63
2021/12/17 09:12:14;;;;;;;11.67;9.47;;;;;;;;;;4973730;28;20224;-65
2021/12/17 09:14:42;;;;;;;11.93;10.13;;;;;;;;;;4983227;28;20263;-63
2021/12/17 09:17:09;;;;;;;14.20;11.10;;;;;;;;;;4981872;28;20205;-64
2021/12/17 09:19:36;;;;;;;12.93;10.57;;;;;;;;;;4971693;28;20220;-65
2021/12/17 09:22:04;;;;;;;17.53;11.93;;;;;;;;;;4974654;28;20239;-64
2021/12/17 09:24:31;;;;;;;12.67;10.23;;;;;;;;;;4980361;28;20219;-65
2021/12/17 09:26:59;;;;;;;11.17;8.83;;;;;;;;;;4976859;28;20259;-63
2021/12/17 09:29:27;;;;;;;10.17;8.97;;;;;;;;;;4967550;28;20615;-63
2021/12/17 09:31:54;;;;;;;12.03;9.70;;;;;;;;;;4972108;28;20243;-64
2021/12/17 09:34:22;;;;;;;10.27;9.10;;;;;;;;;;4986370;28;20209;-64
2021/12/17 09:36:50;;;;;;;12.07;9.93;;;;;;;;;;4972620;28;20204;-65
2021/12/17 09:39:18;;;;;;;12.60;9.70;;;;;;;;;;4975852;28;20227;-64
2021/12/17 09:41:50;;;;;;;13.17;11.03;;;;;;;;;;4997347;28;20212;-64
2021/12/17 09:44:19;;;;;;;11.53;10.17;;;;;;;;;;4997660;28;20208;-64
2021/12/17 09:46:47;;;;;;;11.77;10.30;;;;;;;;;;4982858;28;20223;-65
2021/12/17 09:49:19;;;;;;;14.40;11.63;;;;;;;;;;4965749;28;20244;-65
2021/12/17 09:51:47;;;;;;;13.47;10.67;;;;;;;;;;4965229;28;20340;-64
2021/12/17 09:54:14;;;;;;;14.23;9.90;;;;;;;;;;4972551;28;20212;-65
2021/12/17 09:56:42;;;;;;;13.53;11.00;;;;;;;;;;4972681;28;20236;-64
2021/12/17 09:59:10;;;;;;;12.67;10.20;;;;;;;;;;4961629;28;20257;-63
2021/12/17 10:01:42;;;;;;;13.30;10.77;;;;;;;;;;4975812;28;20239;-65
2021/12/17 10:04:19;;;;;;;16.80;12.67;;;;;;;;;;4972404;28;20274;-64
2021/12/17 10:06:49;;;;;;;15.67;12.87;;;;;;;;;;4961745;28;20226;-65
2021/12/17 10:09:16;;;;;;;13.50;11.13;;;;;;;;;;4965829;28;20216;-64
2021/12/17 10:12:03;;;;;;;13.40;10.53;;;;;;;;;;4971697;28;20236;-64
2021/12/17 10:14:31;;;;;;;10.97;9.77;;;;;;;;;;4970844;28;20267;-64
2021/12/17 10:17:09;;;;;;;10.60;8.90;;;;;;;;;;4963573;28;20212;-63
2021/12/17 10:19:43;;;;;;;11.13;9.17;;;;;;;;;;4964872;28;20232;-64
2021/12/17 10:22:14;;;;;;;10.63;8.33;;;;;;;;;;4977457;28;20220;-64
2021/12/17 10:25:02;;;;;;;11.50;9.20;;;;;;;;;;4960903;28;20208;-64
2021/12/17 10:27:31;;;;;;;9.10;8.20;;;;;;;;;;4972719;28;20247;-64
2021/12/17 10:29:59;;;;;;;10.17;8.80;;;;;;;;;;4985312;28;20204;-64
2021/12/17 10:32:27;;;;;;;10.63;8.70;;;;;;;;;;4977158;28;20290;-65
2021/12/17 10:35:02;;;;;;;8.80;7.73;;;;;;;;;;4976523;28;20208;-64
2021/12/17 10:37:50;;;;;;;7.20;6.50;;;;;;;;;;4985145;28;20242;-65
2021/12/17 10:40:25;;;;;;;9.00;7.13;;;;;;;;;;4979386;28;20212;-64
2021/12/17 10:43:06;;;;;;;7.07;6.33;;;;;;;;;;4975425;28;20228;-64
2021/12/17 10:45:35;;;;;;;7.87;6.63;;;;;;;;;;4973161;28;20204;-65
2021/12/17 10:51:15;;;;;;;6.77;5.90;;;;;;;;;;4916207;28;20230;-63
2021/12/17 10:53:54;;;;;;;6.93;6.23;;;;;;;;;;4969108;28;20299;-65
2021/12/17 10:56:22;;;;;;;7.60;5.87;;;;;;;;;;4955866;28;20204;-64
2021/12/17 10:58:54;;;;;;;9.00;6.30;;;;;;;;;;4961530;28;20286;-65
2021/12/17 11:01:33;;;;;;;6.50;5.77;;;;;;;;;;4957419;28;20238;-62
2021/12/17 11:04:04;;;;;;;8.17;7.30;;;;;;;;;;4966263;28;20235;-65
2021/12/17 11:06:43;;;;;;;8.70;7.00;;;;;;;;;;4962325;28;20216;-64
2021/12/17 11:09:11;;;;;;;7.60;6.80;;;;;;;;;;4955777;28;20216;-65
2021/12/17 11:11:42;;;;;;;8.27;7.30;;;;;;;;;;4980277;28;20283;-63
2021/12/17 11:14:09;;;;;;;7.33;6.60;;;;;;;;;;4959590;28;20208;-63
2021/12/17 11:16:38;;;;;;;9.13;7.60;;;;;;;;;;4956675;28;20197;-64
2021/12/17 11:19:07;;;;;;;9.87;7.27;;;;;;;;;;4959784;28;20201;-64
2021/12/17 11:21:34;;;;;;;7.97;6.50;;;;;;;;;;4969277;28;20585;-65
2021/12/17 11:24:02;;;;;;;6.83;6.13;;;;;;;;;;4959785;28;20217;-65
2021/12/17 11:26:31;;;;;;;11.50;8.33;;;;;;;;;;4961673;28;20212;-65
2021/12/17 11:29:03;;;;;;;8.03;6.73;;;;;;;;;;4981066;28;20217;-64
2021/12/17 11:31:32;;;;;;;7.80;6.47;;;;;;;;;;4971733;28;20232;-65
2021/12/17 11:34:03;;;;;;;7.40;5.83;;;;;;;;;;4960751;28;20205;-64
2021/12/17 11:36:30;;;;;;;6.33;5.33;;;;;;;;;;4975565;28;20216;-65
2021/12/17 11:39:02;;;;;;;6.33;5.57;;;;;;;;;;4970235;28;20215;-65
2021/12/17 11:41:40;;;;;;;4.63;4.10;;;;;;;;;;4962078;28;20264;-62
2021/12/17 11:44:09;;;;;;;4.63;4.23;;;;;;;;;;4969409;28;20213;-64
2021/12/17 11:46:36;;;;;;;4.80;4.40;;;;;;;;;;4983355;28;20209;-65
2021/12/17 11:49:15;;;;;;;6.13;5.40;;;;;;;;;;4989415;28;20208;-65
2021/12/17 11:51:42;;;;;;;6.00;5.40;;;;;;;;;;4982969;28;21134;-63
2021/12/17 11:54:18;;;;;;;5.50;5.00;;;;;;;;;;4967912;28;20586;-64
2021/12/17 11:56:52;;;;;;;5.80;5.20;;;;;;;;;;4979282;28;20302;-65
2021/12/17 11:59:28;;;;;;;5.20;4.70;;;;;;;;;;4961719;28;20262;-64
2021/12/17 12:02:12;;;;;;;4.80;4.03;;;;;;;;;;4959655;28;20232;-65
2021/12/17 12:04:40;;;;;;;4.90;4.43;;;;;;;;;;4955956;28;20213;-65
2021/12/17 12:07:13;;;;;;;4.97;4.47;;;;;;;;;;4966615;28;20208;-63
2021/12/17 12:09:56;;;;;;;4.73;4.33;;;;;;;;;;4978802;28;21844;-65
2021/12/17 12:12:29;;;;;;;4.50;4.10;;;;;;;;;;4958400;28;20243;-66
2021/12/17 12:15:16;;;;;;;5.53;4.27;;;;;;;;;;4969293;28;20424;-65
2021/12/17 12:18:02;;;;;;;4.43;4.03;;;;;;;;;;4982170;28;20390;-66
2021/12/17 12:20:42;;;;;;;3.87;3.57;;;;;;;;;;4998404;28;20236;-63
2021/12/17 12:23:27;;;;;;;4.20;3.80;;;;;;;;;;4966417;28;20224;-66
2021/12/17 12:26:04;;;;;;;4.20;3.80;;;;;;;;;;4972466;28;20212;-66
2021/12/17 12:28:47;;;;;;;4.03;3.37;;;;;;;;;;4961135;28;20570;-65
2021/12/17 12:31:32;;;;;;;5.17;3.83;;;;;;;;;;4970188;28;20238;-65
2021/12/17 12:34:04;;;;;;;3.67;3.33;;;;;;;;;;4967944;28;20927;-65
2021/12/17 12:36:44;;;;;;;3.60;3.30;;;;;;;;;;4971896;28;20287;-65
2021/12/17 12:39:15;;;;;;;5.37;4.40;;;;;;;;;;4973216;28;20678;-65
2021/12/17 12:42:02;;;;;;;3.90;3.60;;;;;;;;;;4971407;28;20275;-64
2021/12/17 12:44:42;;;;;;;10.17;5.17;;;;;;;;;;4964185;28;20215;-67
2021/12/17 12:47:11;;;;;;;4.70;4.07;;;;;;;;;;4971631;28;20199;-65
2021/12/17 12:49:49;;;;;;;3.90;3.60;;;;;;;;;;4968562;28;20216;-65
2021/12/17 12:52:28;;;;;;;4.00;3.67;;;;;;;;;;4962522;28;20255;-67
2021/12/17 12:55:00;;;;;;;3.63;3.33;;;;;;;;;;4962685;28;20813;-65
2021/12/17 12:57:28;;;;;;;4.20;3.80;;;;;;;;;;4971158;28;20196;-64
2021/12/17 12:59:56;;;;;;;3.90;3.60;;;;;;;;;;4967321;28;20726;-65
2021/12/17 13:02:25;;;;;;;3.70;3.37;;;;;;;;;;4975766;28;20275;-65
2021/12/17 13:04:59;;;;;;;3.90;3.50;;;;;;;;;;4972548;28;20223;-63
2021/12/17 13:07:46;;;;;;;7.27;4.40;;;;;;;;;;4971043;28;20627;-65
2021/12/17 13:10:19;;;;;;;4.97;4.20;;;;;;;;;;4973469;28;20220;-64
2021/12/17 13:12:51;;;;;;;3.80;3.50;;;;;;;;;;4971239;28;20232;-65
2021/12/17 13:23:22;;;;;;;3.30;3.00;;;;;;;;;;4971393;28;20234;-63
2021/12/17 13:26:01;;;;;;;5.53;5.03;;;;;;;;;;4975303;28;20716;-64
2021/12/17 13:28:44;;;;;;;8.40;7.03;;;;;;;;;;4963573;28;20205;-65
2021/12/17 13:31:12;;;;;;;8.87;6.87;;;;;;;;;;4975139;28;20232;-64
2021/12/17 13:33:39;;;;;;;8.37;7.43;;;;;;;;;;4972839;28;20203;-63
2021/12/17 13:36:13;;;;;;;8.87;7.97;;;;;;;;;;4966940;28;20213;-65
2021/12/17 13:38:44;;;;;;;9.77;8.53;;;;;;;;;;4971409;28;20259;-64
2021/12/17 13:41:12;;;;;;;9.97;8.07;;;;;;;;;;4964787;28;20207;-66
2021/12/17 13:43:41;;;;;;;9.60;7.77;;;;;;;;;;4965014;28;20212;-66
2021/12/17 13:46:08;;;;;;;8.80;7.90;;;;;;;;;;4957228;28;20623;-65
2021/12/17 13:48:36;;;;;;;12.33;10.60;;;;;;;;;;4964163;28;20263;-63
2021/12/17 13:51:03;;;;;;;10.57;8.43;;;;;;;;;;4968886;28;20267;-65
2021/12/17 13:53:31;;;;;;;10.70;8.70;;;;;;;;;;4972843;28;21326;-63
2021/12/17 13:56:18;;;;;;;9.87;8.87;;;;;;;;;;4960909;28;20220;-65
2021/12/17 13:58:45;;;;;;;10.37;8.73;;;;;;;;;;4966478;28;20584;-65
2021/12/17 14:01:20;;;;;;;11.30;8.27;;;;;;;;;;4960589;28;20253;-65
2021/12/17 14:03:47;;;;;;;10.07;8.97;;;;;;;;;;4968277;28;20306;-64
2021/12/17 14:06:22;;;;;;;10.20;8.90;;;;;;;;;;4966373;28;20214;-64
2021/12/17 14:08:51;;;;;;;9.97;8.57;;;;;;;;;;4961064;28;20230;-63
2021/12/17 14:11:31;;;;;;;10.23;8.70;;;;;;;;;;4966950;28;20228;-64
2021/12/17 14:14:26;;;;;;;10.80;8.70;;;;;;;;;;4984086;28;20216;-63
2021/12/17 14:17:00;;;;;;;10.57;9.17;;;;;;;;;;4969261;28;20208;-63
2021/12/17 14:19:40;;;;;;;13.67;9.73;;;;;;;;;;4966997;28;20211;-65
2021/12/17 14:22:29;;;;;;;10.93;9.20;;;;;;;;;;4967011;28;20286;-65
2021/12/17 14:24:58;;;;;;;10.67;9.50;;;;;;;;;;4961044;28;20204;-63
2021/12/17 14:27:44;;;;;;;10.47;9.17;;;;;;;;;;4953260;28;20369;-65
2021/12/17 14:30:12;;;;;;;11.57;8.90;;;;;;;;;;4963747;28;20217;-65
2021/12/17 14:32:41;;;;;;;11.40;9.30;;;;;;;;;;4967833;28;20236;-66
2021/12/17 14:35:09;;;;;;;12.23;10.00;;;;;;;;;;4965638;28;20212;-63
2021/12/17 14:37:47;;;;;;;11.13;9.50;;;;;;;;;;4968634;28;20300;-66
2021/12/17 14:40:49;;;;;;;10.83;9.60;;;;;;;;;;4959562;28;20259;-66
2021/12/17 14:43:28;;;;;;;11.97;9.93;;;;;;;;;;4953883;28;20295;-64
2021/12/17 14:46:03;;;;;;;11.47;10.27;;;;;;;;;;4970514;28;20750;-65
2021/12/17 14:48:41;;;;;;;12.00;10.37;;;;;;;;;;4975036;28;20859;-64
2021/12/17 15:04:45;;;;;;;10.33;8.80;;;;;;;;;;4975836;28;20215;-64
2021/12/17 15:07:13;;;;;;;11.63;9.87;;;;;;;;;;4957996;28;20211;-65
2021/12/17 15:09:46;;;;;;;11.47;8.73;;;;;;;;;;4962224;28;20223;-65
2021/12/17 15:15:00;;;;;;;15.13;11.03;;;;;;;;;;4968361;28;20914;-64
2021/12/17 15:17:28;;;;;;;16.53;12.47;;;;;;;;;;4973760;28;20220;-64
2021/12/17 15:20:17;;;;;;;13.57;10.60;;;;;;;;;;4968533;28;20574;-66
2021/12/17 15:22:44;;;;;;;15.57;11.00;;;;;;;;;;4970176;28;20232;-63
2021/12/17 15:25:12;;;;;;;14.97;10.27;;;;;;;;;;4973071;28;20216;-64
2021/12/17 15:27:41;;;;;;;15.20;10.63;;;;;;;;;;4979416;28;20205;-64
2021/12/17 15:30:13;;;;;;;17.40;12.07;;;;;;;;;;4965698;28;20223;-67
2021/12/17 15:32:41;;;;;;;15.33;11.10;;;;;;;;;;4960466;28;20237;-65
2021/12/17 15:35:11;;;;;;;20.17;11.60;;;;;;;;;;4962582;28;20211;-63
2021/12/17 15:37:41;;;;;;;18.73;12.10;;;;;;;;;;4981186;28;20209;-65
2021/12/17 15:40:10;;;;;;;17.83;12.80;;;;;;;;;;4974221;28;20213;-64
2021/12/17 15:42:38;;;;;;;13.83;10.60;;;;;;;;;;4961527;28;20847;-65
2021/12/17 15:45:06;;;;;;;14.90;11.20;;;;;;;;;;4970801;28;20201;-64
2021/12/17 15:47:34;;;;;;;16.53;11.60;;;;;;;;;;4964530;28;20694;-65
2021/12/17 15:50:02;;;;;;;20.63;13.60;;;;;;;;;;4971466;28;20695;-65
2021/12/17 15:52:31;;;;;;;15.13;11.47;;;;;;;;;;4963922;28;20254;-65
2021/12/17 15:54:59;;;;;;;15.30;11.33;;;;;;;;;;4968625;28;20227;-66
2021/12/17 15:57:26;;;;;;;19.10;12.60;;;;;;;;;;4981005;28;20203;-63
2021/12/17 15:59:54;;;;;;;19.67;13.90;;;;;;;;;;4970425;28;20201;-64
2021/12/17 16:02:21;;;;;;;20.53;13.53;;;;;;;;;;4985180;28;20224;-66
2021/12/17 16:04:49;;;;;;;20.30;14.53;;;;;;;;;;4977427;28;20212;-65
2021/12/17 16:07:16;;;;;;;17.57;12.87;;;;;;;;;;4981350;28;20209;-65
2021/12/17 16:11:08;;;;;;;16.90;13.00;;;;;;;;;;4983018;28;20239;-65
2021/12/17 16:18:18;;;;;;;17.87;13.47;;;;;;;;;;4990976;28;20200;-63
2021/12/17 16:23:29;;;;;;;24.13;18.87;;;;;;;;;;4976599;28;20270;-65
2021/12/17 16:25:56;;;;;;;31.60;20.73;;;;;;;;;;4974368;28;20255;-65
2021/12/17 16:28:23;;;;;;;49.90;28.73;;;;;;;;;;4965727;28;20212;-65
2021/12/17 16:30:51;;;;;;;27.93;20.03;;;;;;;;;;4978757;28;20732;-63
2021/12/17 16:33:18;;;;;;;22.73;16.93;;;;;;;;;;4983927;28;20235;-65
2021/12/17 16:35:45;;;;;;;25.10;19.47;;;;;;;;;;4981745;28;20284;-65
2021/12/17 16:38:14;;;;;;;23.93;18.23;;;;;;;;;;4990112;28;20212;-65
2021/12/17 16:40:41;;;;;;;22.93;16.47;;;;;;;;;;4979201;28;20262;-65
2021/12/17 16:43:09;;;;;;;18.17;13.80;;;;;;;;;;4988634;28;20228;-65
2021/12/17 16:45:41;;;;;;;19.83;15.00;;;;;;;;;;4972087;28;20204;-63
2021/12/17 16:48:09;;;;;;;23.87;17.07;;;;;;;;;;4973654;28;20602;-66
2021/12/17 16:50:36;;;;;;;27.15;19.77;;;;;;;;;;4976931;28;20494;-64
2021/12/17 16:53:04;;;;;;;23.73;18.73;;;;;;;;;;4948531;28;20224;-66
2021/12/17 16:55:31;;;;;;;23.77;17.10;;;;;;;;;;4967408;28;20236;-65
2021/12/17 16:57:59;;;;;;;29.20;20.10;;;;;;;;;;4964066;28;20232;-65
2021/12/17 17:00:30;;;;;;;35.27;23.20;;;;;;;;;;4961890;28;20217;-63
2021/12/17 17:02:58;;;;;;;42.93;28.43;;;;;;;;;;4952291;28;20250;-64
2021/12/17 17:05:26;;;;;;;38.67;25.30;;;;;;;;;;4945657;28;20989;-64
2021/12/17 17:07:54;;;;;;;29.53;21.23;;;;;;;;;;4957181;28;20212;-63
2021/12/17 17:10:22;;;;;;;27.10;20.30;;;;;;;;;;4950859;28;20224;-63
2021/12/17 17:12:50;;;;;;;27.57;19.70;;;;;;;;;;4972118;28;20612;-64
2021/12/17 17:15:18;;;;;;;29.47;21.73;;;;;;;;;;4961333;28;20200;-64
2021/12/17 17:17:45;;;;;;;34.07;24.63;;;;;;;;;;4962503;28;20212;-63
2021/12/17 17:20:12;;;;;;;29.13;21.57;;;;;;;;;;4970209;28;20646;-64
2021/12/17 17:22:40;;;;;;;21.10;15.73;;;;;;;;;;4955082;28;20246;-63
2021/12/17 17:25:07;;;;;;;17.83;13.83;;;;;;;;;;4961912;28;20213;-65
2021/12/17 17:27:35;;;;;;;17.07;12.40;;;;;;;;;;4964212;28;20209;-65
2021/12/17 17:30:04;;;;;;;14.47;11.63;;;;;;;;;;4982473;28;20212;-64
2021/12/17 17:32:34;;;;;;;15.10;12.10;;;;;;;;;;4966380;28;20236;-63
2021/12/17 17:35:02;;;;;;;17.73;14.17;;;;;;;;;;4967946;28;20209;-65
2021/12/17 17:37:31;;;;;;;28.23;20.50;;;;;;;;;;4967284;28;20208;-64
2021/12/17 17:39:59;;;;;;;31.13;23.50;;;;;;;;;;4971480;28;20217;-65
2021/12/17 17:42:30;;;;;;;30.27;21.23;;;;;;;;;;4958024;28;20243;-64
2021/12/17 17:44:58;;;;;;;35.60;26.07;;;;;;;;;;4961704;28;20926;-67
2021/12/17 17:47:25;;;;;;;32.07;23.43;;;;;;;;;;4960765;28;20353;-64
2021/12/17 17:49:54;;;;;;;36.33;26.53;;;;;;;;;;4972969;28;20225;-64
2021/12/17 17:52:21;;;;;;;30.33;21.67;;;;;;;;;;4971577;28;20282;-65
2021/12/17 17:54:49;;;;;;;29.83;20.83;;;;;;;;;;4966977;28;20197;-64
2021/12/17 17:57:17;;;;;;;29.80;22.17;;;;;;;;;;4959882;28;20212;-64
2021/12/17 17:59:48;;;;;;;37.73;24.17;;;;;;;;;;4972697;28;20201;-64
2021/12/17 18:02:16;;;;;;;45.33;27.83;;;;;;;;;;4967943;28;20244;-63
2021/12/17 18:04:43;;;;;;;33.57;21.87;;;;;;;;;;4961138;28;20223;-63
2021/12/17 18:07:11;;;;;;;32.57;21.93;;;;;;;;;;4948124;28;20204;-65